Brandonville, West Virginia
Current Conditions -  °F | °C
As of 3:53 PM on Monday 24 Nov 2014 (Local Time) from KMGW Reporting Station
Clear Clear  
Wind Chill: 69°   Ceiling: Unl
Heat Index: 69°   Visibility: 10mi
Dew Point: 38°   Wind: 17mph
Humidity: 32%   Direction: 220°SW
Pressure: 29.56"   Gusts: 32mph
Location:  39.6431°N, 79.6244°W
Report Text: KMGW 242053Z 22015G28KT 10SM CLR 21/03 A2956 RMK AO2 PK WND 24029/2023 SLP001 T02060033 53026
Loading
Personal Weather Stations






























Interactive Weather Map New forecast layout! Learn more

10-Day Weather Forecast

Advertisements
Track Severe Weather on mobile